Tokuyama, Japan
Current Conditions -  °F | °C
As of 11:55 PM on Saturday 25 Oct 2014 (Local Time) from RJOI Reporting Station
Few Clouds Few Clouds  
Wind Chill: 62°   Ceiling: Unl
Heat Index: 62°   Visibility: 6mi
Dew Point: 56°   Wind: 7mph
Humidity: 80%   Direction: 300°WNW
Pressure: 30.16"   Gusts: NA
Location:  34.05°N, 131.8°E
Report Text: RJOI 251455Z 30006KT 9999 FEW030 17/13 A3016 RMK SLP212 T01670133 402220128 58003
Loading
Personal Weather Stations






























Interactive Weather Map
Tropical Storm Tracking
New forecast layout! Learn more

10-Day Weather Forecast

Advertisements
Track Severe Weather on mobile